Time;durP1;ratioP1;P1;durP2;ratioP2;P2;SDS_P1;SDS_P2;PMS_P1;PMS_P2;Temp;Humidity;BMP_temperature;BMP_pressure;BME280_temperature;BME280_humidity;BME280_pressure;Samples;Min_cycle;Max_cycle;Signal;HPM_P1;HPM_P2
2023/12/30 00:00:17;;;;;;;;;;;;;;;;;;5078256;28;1263;-58
2023/12/30 00:02:44;;;;;;;;;;;;;;;;;;5070624;28;1235;-59
2023/12/30 00:05:09;;;;;;;;;;;;;;;;;;5071242;28;1238;-59
2023/12/30 00:07:34;;;;;;;;;;;;;;;;;;5078638;28;1250;-58
2023/12/30 00:10:00;;;;;;;;;;;;;;;;;;5072638;28;1282;-57
2023/12/30 00:12:25;;;;;;;;;;;;;;;;;;5083472;28;1258;-58
2023/12/30 00:14:50;;;;;;;;;;;;;;;;;;5090566;28;1215;-58
2023/12/30 00:17:16;;;;;;;;;;;;;;;;;;5085479;28;1902;-57
2023/12/30 00:19:44;;;;;;;;;;;;;;;;;;5083505;28;1175;-59
2023/12/30 00:22:10;;;;;;;;;;;;;;;;;;5070955;28;1240;-58
2023/12/30 00:24:35;;;;;;;;;;;;;;;;;;5059423;28;1313;-59
2023/12/30 00:27:00;;;;;;;;;;;;;;;;;;5088785;28;1202;-59
2023/12/30 00:29:26;;;;;;;;;;;;;;;;;;5072225;28;1222;-59
2023/12/30 00:31:51;;;;;;;;;;;;;;;;;;5071744;28;824;-59
2023/12/30 00:34:17;;;;;;;;;;;;;;;;;;5071922;28;797;-59
2023/12/30 00:36:43;;;;;;;;;;;;;;;;;;5071963;28;1074;-58
2023/12/30 00:39:09;;;;;;;;;;;;;;;;;;5072810;28;1898;-58
2023/12/30 00:41:34;;;;;;;;;;;;;;;;;;5073677;28;907;-58
2023/12/30 00:43:59;;;;;;;;;;;;;;;;;;5073620;28;825;-58
2023/12/30 00:46:25;;;;;;;;;;;;;;;;;;5073898;28;860;-58
2023/12/30 00:48:50;;;;;;;;;;;;;;;;;;5073942;28;1038;-58
2023/12/30 00:51:16;;;;;;;;;;;;;;;;;;5072231;28;852;-57
2023/12/30 00:53:41;;;;;;;;;;;;;;;;;;5071847;28;1091;-57
2023/12/30 00:56:06;;;;;;;;;;;;;;;;;;5073648;28;963;-57
2023/12/30 00:58:32;;;;;;;;;;;;;;;;;;5071979;28;1898;-57
2023/12/30 01:00:57;;;;;;;;;;;;;;;;;;5073101;28;905;-57
2023/12/30 01:03:22;;;;;;;;;;;;;;;;;;5073434;28;903;-58
2023/12/30 01:05:47;;;;;;;;;;;;;;;;;;5073623;28;915;-57
2023/12/30 01:08:13;;;;;;;;;;;;;;;;;;5073390;28;919;-58
2023/12/30 01:10:38;;;;;;;;;;;;;;;;;;5073591;28;899;-57
2023/12/30 01:13:05;;;;;;;;;;;;;;;;;;5073042;28;880;-57
2023/12/30 01:15:31;;;;;;;;;;;;;;;;;;5073187;28;946;-57
2023/12/30 01:17:57;;;;;;;;;;;;;;;;;;5072638;28;1969;-57
2023/12/30 01:20:22;;;;;;;;;;;;;;;;;;5073020;28;1008;-57
2023/12/30 01:22:47;;;;;;;;;;;;;;;;;;5073140;28;879;-57
2023/12/30 01:25:12;;;;;;;;;;;;;;;;;;5073447;28;829;-57
2023/12/30 01:27:38;;;;;;;;;;;;;;;;;;5073315;28;1089;-57
2023/12/30 01:30:04;;;;;;;;;;;;;;;;;;5073330;28;942;-57
2023/12/30 01:32:29;;;;;;;;;;;;;;;;;;5073114;28;1152;-57
2023/12/30 01:34:55;;;;;;;;;;;;;;;;;;5073166;28;853;-57
2023/12/30 01:37:20;;;;;;;;;;;;;;;;;;5073026;28;1910;-57
2023/12/30 01:39:46;;;;;;;;;;;;;;;;;;5071843;28;884;-57
2023/12/30 01:42:12;;;;;;;;;;;;;;;;;;5073185;28;846;-57
2023/12/30 01:44:37;;;;;;;;;;;;;;;;;;5075657;28;1021;-57
2023/12/30 01:47:02;;;;;;;;;;;;;;;;;;5076617;28;936;-57
2023/12/30 01:49:28;;;;;;;;;;;;;;;;;;5076322;28;974;-57
2023/12/30 01:51:53;;;;;;;;;;;;;;;;;;5076887;28;828;-56
2023/12/30 01:54:20;;;;;;;;;;;;;;;;;;5076512;28;1025;-57
2023/12/30 01:56:47;;;;;;;;;;;;;;;;;;5076766;28;884;-58
2023/12/30 01:59:14;;;;;;;;;;;;;;;;;;5076389;28;1902;-57
2023/12/30 02:01:40;;;;;;;;;;;;;;;;;;5076556;28;947;-58
2023/12/30 02:04:05;;;;;;;;;;;;;;;;;;5076629;28;999;-57
2023/12/30 02:06:31;;;;;;;;;;;;;;;;;;5076380;28;859;-57
2023/12/30 02:08:56;;;;;;;;;;;;;;;;;;5076224;28;919;-57
2023/12/30 02:11:21;;;;;;;;;;;;;;;;;;5076379;28;927;-57
2023/12/30 02:13:47;;;;;;;;;;;;;;;;;;5076066;28;974;-57
2023/12/30 02:16:12;;;;;;;;;;;;;;;;;;5076165;28;1022;-58
2023/12/30 02:18:38;;;;;;;;;;;;;;;;;;5076337;28;1976;-57
2023/12/30 02:21:03;;;;;;;;;;;;;;;;;;5076219;28;864;-57
2023/12/30 02:23:28;;;;;;;;;;;;;;;;;;5082065;28;1183;-56
2023/12/30 02:25:54;;;;;;;;;;;;;;;;;;5084765;28;1290;-57
2023/12/30 02:28:19;;;;;;;;;;;;;;;;;;5081579;28;1230;-58
2023/12/30 02:30:45;;;;;;;;;;;;;;;;;;5095766;28;991;-57
2023/12/30 02:33:10;;;;;;;;;;;;;;;;;;5095876;28;883;-57
2023/12/30 02:35:35;;;;;;;;;;;;;;;;;;5096087;28;892;-57
2023/12/30 02:38:00;;;;;;;;;;;;;;;;;;5095543;28;1965;-57
2023/12/30 02:40:26;;;;;;;;;;;;;;;;;;5095658;28;915;-57
2023/12/30 02:42:51;;;;;;;;;;;;;;;;;;5083604;28;1233;-57
2023/12/30 02:45:16;;;;;;;;;;;;;;;;;;5088409;28;1281;-57
2023/12/30 02:47:42;;;;;;;;;;;;;;;;;;5070886;28;1219;-57
2023/12/30 02:50:07;;;;;;;;;;;;;;;;;;5081585;28;1380;-57
2023/12/30 02:52:33;;;;;;;;;;;;;;;;;;5083966;28;1211;-57
2023/12/30 02:54:59;;;;;;;;;;;;;;;;;;5071965;28;1381;-57
2023/12/30 02:57:25;;;;;;;;;;;;;;;;;;5075079;28;1957;-57
2023/12/30 02:59:50;;;;;;;;;;;;;;;;;;5074445;28;832;-58
2023/12/30 03:02:16;;;;;;;;;;;;;;;;;;5073945;28;1254;-58
2023/12/30 03:04:41;;;;;;;;;;;;;;;;;;5070327;28;1148;-57
2023/12/30 03:07:07;;;;;;;;;;;;;;;;;;5081698;28;1261;-58
2023/12/30 03:09:32;;;;;;;;;;;;;;;;;;5087096;28;1179;-56
2023/12/30 03:11:57;;;;;;;;;;;;;;;;;;5078618;28;1432;-57
2023/12/30 03:14:23;;;;;;;;;;;;;;;;;;5087804;28;1151;-57
2023/12/30 03:16:48;;;;;;;;;;;;;;;;;;5077717;28;1158;-56
2023/12/30 03:19:13;;;;;;;;;;;;;;;;;;5084752;28;1906;-57
2023/12/30 03:21:38;;;;;;;;;;;;;;;;;;5078933;28;1183;-57
2023/12/30 03:24:04;;;;;;;;;;;;;;;;;;5087562;28;1211;-57
2023/12/30 03:26:29;;;;;;;;;;;;;;;;;;5094354;28;1329;-57
2023/12/30 03:28:54;;;;;;;;;;;;;;;;;;5094884;28;1021;-57
2023/12/30 03:31:23;;;;;;;;;;;;;;;;;;5095063;28;943;-57
2023/12/30 03:33:48;;;;;;;;;;;;;;;;;;5094809;28;903;-56
2023/12/30 03:36:14;;;;;;;;;;;;;;;;;;5095326;28;832;-57
2023/12/30 03:38:39;;;;;;;;;;;;;;;;;;5093869;28;1914;-56
2023/12/30 03:41:04;;;;;;;;;;;;;;;;;;5095343;28;924;-57
2023/12/30 03:43:30;;;;;;;;;;;;;;;;;;5094969;28;912;-57
2023/12/30 03:45:55;;;;;;;;;;;;;;;;;;5094727;28;986;-57
2023/12/30 03:48:20;;;;;;;;;;;;;;;;;;5094799;28;995;-58
2023/12/30 03:50:46;;;;;;;;;;;;;;;;;;5094923;28;728;-57
2023/12/30 03:53:11;;;;;;;;;;;;;;;;;;5093329;28;1013;-57
2023/12/30 03:55:36;;;;;;;;;;;;;;;;;;5094592;28;899;-58
2023/12/30 03:58:02;;;;;;;;;;;;;;;;;;5094251;28;1885;-58
2023/12/30 04:00:27;;;;;;;;;;;;;;;;;;5093252;28;898;-58
2023/12/30 04:02:52;;;;;;;;;;;;;;;;;;5094242;28;934;-57
2023/12/30 04:05:18;;;;;;;;;;;;;;;;;;5094304;28;978;-58
2023/12/30 04:07:43;;;;;;;;;;;;;;;;;;5094258;28;994;-59
2023/12/30 04:10:08;;;;;;;;;;;;;;;;;;5093094;28;1010;-57
2023/12/30 04:12:35;;;;;;;;;;;;;;;;;;5094390;28;836;-58
2023/12/30 04:15:00;;;;;;;;;;;;;;;;;;5093836;28;848;-58
2023/12/30 04:17:26;;;;;;;;;;;;;;;;;;5093722;28;1952;-58
2023/12/30 04:19:51;;;;;;;;;;;;;;;;;;5093631;28;994;-58
2023/12/30 04:22:16;;;;;;;;;;;;;;;;;;5094174;28;978;-58
2023/12/30 04:24:41;;;;;;;;;;;;;;;;;;5093940;28;824;-57
2023/12/30 04:27:06;;;;;;;;;;;;;;;;;;5094225;28;821;-58
2023/12/30 04:29:32;;;;;;;;;;;;;;;;;;5094080;28;1115;-58
2023/12/30 04:31:57;;;;;;;;;;;;;;;;;;5094162;28;836;-58
2023/12/30 04:34:22;;;;;;;;;;;;;;;;;;5094067;28;824;-58
2023/12/30 04:36:48;;;;;;;;;;;;;;;;;;5094131;28;844;-58
2023/12/30 04:39:13;;;;;;;;;;;;;;;;;;5093852;28;1897;-58
2023/12/30 04:41:38;;;;;;;;;;;;;;;;;;5094494;28;1046;-57
2023/12/30 04:44:04;;;;;;;;;;;;;;;;;;5094167;28;785;-58
2023/12/30 04:46:29;;;;;;;;;;;;;;;;;;5094122;28;1081;-58
2023/12/30 04:48:54;;;;;;;;;;;;;;;;;;5093806;28;932;-58
2023/12/30 04:51:20;;;;;;;;;;;;;;;;;;5092336;28;939;-58
2023/12/30 04:53:45;;;;;;;;;;;;;;;;;;5094169;28;1004;-58
2023/12/30 04:56:17;;;;;;;;;;;;;;;;;;5093677;28;962;-58
2023/12/30 04:58:42;;;;;;;;;;;;;;;;;;5093257;28;1979;-57
2023/12/30 05:01:08;;;;;;;;;;;;;;;;;;5094040;28;915;-58
2023/12/30 05:03:35;;;;;;;;;;;;;;;;;;5090595;28;1175;-58
2023/12/30 05:06:00;;;;;;;;;;;;;;;;;;5087860;28;1215;-57
2023/12/30 05:08:25;;;;;;;;;;;;;;;;;;5081707;28;1207;-58
2023/12/30 05:10:51;;;;;;;;;;;;;;;;;;5077980;28;1419;-58
2023/12/30 05:13:16;;;;;;;;;;;;;;;;;;5070605;28;1175;-58
2023/12/30 05:15:42;;;;;;;;;;;;;;;;;;5087034;28;1257;-57
2023/12/30 05:18:07;;;;;;;;;;;;;;;;;;5074565;28;1984;-58
2023/12/30 05:20:32;;;;;;;;;;;;;;;;;;5082736;28;1182;-57
2023/12/30 05:23:01;;;;;;;;;;;;;;;;;;5075485;28;1100;-58
2023/12/30 05:25:26;;;;;;;;;;;;;;;;;;5075590;28;1227;-58
2023/12/30 05:27:51;;;;;;;;;;;;;;;;;;5076866;28;836;-58
2023/12/30 05:30:16;;;;;;;;;;;;;;;;;;5077081;28;975;-58
2023/12/30 05:32:42;;;;;;;;;;;;;;;;;;5077272;28;852;-58
2023/12/30 05:35:07;;;;;;;;;;;;;;;;;;5077331;28;999;-58
2023/12/30 05:37:32;;;;;;;;;;;;;;;;;;5076956;28;1905;-57
2023/12/30 05:39:58;;;;;;;;;;;;;;;;;;5076572;28;904;-57
2023/12/30 05:42:23;;;;;;;;;;;;;;;;;;5076933;28;939;-57
2023/12/30 05:44:48;;;;;;;;;;;;;;;;;;5076797;28;1162;-58
2023/12/30 05:47:13;;;;;;;;;;;;;;;;;;5076552;28;780;-58
2023/12/30 05:49:41;;;;;;;;;;;;;;;;;;5076985;28;907;-58
2023/12/30 05:52:07;;;;;;;;;;;;;;;;;;5076842;28;950;-58
2023/12/30 05:54:33;;;;;;;;;;;;;;;;;;5077420;28;925;-58
2023/12/30 05:57:00;;;;;;;;;;;;;;;;;;5076122;28;789;-58
2023/12/30 05:59:25;;;;;;;;;;;;;;;;;;5075285;28;1897;-58
2023/12/30 06:01:50;;;;;;;;;;;;;;;;;;5076334;28;858;-58
2023/12/30 06:04:16;;;;;;;;;;;;;;;;;;5076191;28;828;-58
2023/12/30 06:06:42;;;;;;;;;;;;;;;;;;5076458;28;990;-58
2023/12/30 06:09:07;;;;;;;;;;;;;;;;;;5076518;28;785;-57
2023/12/30 06:11:33;;;;;;;;;;;;;;;;;;5075112;28;852;-57
2023/12/30 06:13:58;;;;;;;;;;;;;;;;;;5076274;28;821;-57
2023/12/30 06:16:23;;;;;;;;;;;;;;;;;;5076562;28;855;-58
2023/12/30 06:18:48;;;;;;;;;;;;;;;;;;5075987;28;1898;-57
2023/12/30 06:21:14;;;;;;;;;;;;;;;;;;5076292;28;1017;-57
2023/12/30 06:23:39;;;;;;;;;;;;;;;;;;5076368;28;820;-57
2023/12/30 06:26:04;;;;;;;;;;;;;;;;;;5076226;28;884;-57
2023/12/30 06:28:30;;;;;;;;;;;;;;;;;;5076270;28;884;-57
2023/12/30 06:30:55;;;;;;;;;;;;;;;;;;5073796;28;896;-58
2023/12/30 06:33:21;;;;;;;;;;;;;;;;;;5075851;28;849;-57
2023/12/30 06:35:47;;;;;;;;;;;;;;;;;;5075984;28;853;-57
2023/12/30 06:38:13;;;;;;;;;;;;;;;;;;5075959;28;1910;-57
2023/12/30 06:40:39;;;;;;;;;;;;;;;;;;5075944;28;939;-56
2023/12/30 06:43:04;;;;;;;;;;;;;;;;;;5075882;28;844;-57
2023/12/30 06:45:29;;;;;;;;;;;;;;;;;;5074579;28;927;-58
2023/12/30 06:47:55;;;;;;;;;;;;;;;;;;5076161;28;978;-56
2023/12/30 06:50:22;;;;;;;;;;;;;;;;;;5076011;28;983;-57
2023/12/30 06:52:47;;;;;;;;;;;;;;;;;;5075618;28;906;-57
2023/12/30 06:55:14;;;;;;;;;;;;;;;;;;5076292;28;1037;-57
2023/12/30 06:57:40;;;;;;;;;;;;;;;;;;5075609;28;1948;-57
2023/12/30 07:00:06;;;;;;;;;;;;;;;;;;5074619;28;947;-57
2023/12/30 07:02:32;;;;;;;;;;;;;;;;;;5076279;28;1175;-57
2023/12/30 07:04:57;;;;;;;;;;;;;;;;;;5094449;28;622;-57
2023/12/30 07:07:22;;;;;;;;;;;;;;;;;;5093636;28;832;-57
2023/12/30 07:09:47;;;;;;;;;;;;;;;;;;5093205;28;1159;-57
2023/12/30 07:12:13;;;;;;;;;;;;;;;;;;5092032;28;825;-57
2023/12/30 07:14:38;;;;;;;;;;;;;;;;;;5093866;28;924;-57
2023/12/30 07:17:04;;;;;;;;;;;;;;;;;;5093932;28;864;-57
2023/12/30 07:19:29;;;;;;;;;;;;;;;;;;5093004;28;1962;-57
2023/12/30 07:21:54;;;;;;;;;;;;;;;;;;5093845;28;1340;-57
2023/12/30 07:24:23;;;;;;;;;;;;;;;;;;5093817;28;900;-56
2023/12/30 07:26:48;;;;;;;;;;;;;;;;;;5095130;28;953;-57
2023/12/30 07:29:13;;;;;;;;;;;;;;;;;;5094878;28;840;-57
2023/12/30 07:31:39;;;;;;;;;;;;;;;;;;5095279;28;1170;-57
2023/12/30 07:34:04;;;;;;;;;;;;;;;;;;5093773;28;860;-58
2023/12/30 07:36:30;;;;;;;;;;;;;;;;;;5094896;28;900;-58
2023/12/30 07:38:56;;;;;;;;;;;;;;;;;;5094565;28;2404;-58
2023/12/30 07:41:21;;;;;;;;;;;;;;;;;;5094384;28;1159;-58
2023/12/30 07:43:47;;;;;;;;;;;;;;;;;;5094656;28;998;-58
2023/12/30 07:46:12;;;;;;;;;;;;;;;;;;5094654;28;922;-56
2023/12/30 07:48:37;;;;;;;;;;;;;;;;;;5094930;28;866;-57
2023/12/30 07:51:03;;;;;;;;;;;;;;;;;;5094553;28;895;-58
2023/12/30 07:53:29;;;;;;;;;;;;;;;;;;5094401;28;869;-58
2023/12/30 07:55:54;;;;;;;;;;;;;;;;;;5094278;28;962;-58
2023/12/30 07:58:19;;;;;;;;;;;;;;;;;;5094167;28;1964;-57
2023/12/30 08:00:45;;;;;;;;;;;;;;;;;;5093846;28;1183;-57
2023/12/30 08:03:11;;;;;;;;;;;;;;;;;;5081469;28;1234;-58
2023/12/30 08:05:36;;;;;;;;;;;;;;;;;;5081487;28;1207;-58
2023/12/30 08:08:02;;;;;;;;;;;;;;;;;;5089535;28;1155;-57
2023/12/30 08:10:29;;;;;;;;;;;;;;;;;;5088507;28;1203;-58
2023/12/30 08:12:54;;;;;;;;;;;;;;;;;;5090232;28;1143;-57
2023/12/30 08:15:20;;;;;;;;;;;;;;;;;;5069905;28;1092;-58
2023/12/30 08:17:45;;;;;;;;;;;;;;;;;;5089476;28;1902;-58
2023/12/30 08:20:10;;;;;;;;;;;;;;;;;;5085470;28;1223;-58
2023/12/30 08:22:36;;;;;;;;;;;;;;;;;;5078690;28;1198;-57
2023/12/30 08:25:01;;;;;;;;;;;;;;;;;;5080684;28;1120;-57
2023/12/30 08:27:26;;;;;;;;;;;;;;;;;;5073412;28;868;-57
2023/12/30 08:29:51;;;;;;;;;;;;;;;;;;5073947;28;892;-58
2023/12/30 08:32:17;;;;;;;;;;;;;;;;;;5074284;28;888;-58
2023/12/30 08:34:42;;;;;;;;;;;;;;;;;;5074143;28;820;-57
2023/12/30 08:37:09;;;;;;;;;;;;;;;;;;5074225;28;848;-57
2023/12/30 08:39:37;;;;;;;;;;;;;;;;;;5074456;28;884;-58
2023/12/30 08:42:04;;;;;;;;;;;;;;;;;;5074198;28;941;-57
2023/12/30 08:44:29;;;;;;;;;;;;;;;;;;5074102;28;864;-58
2023/12/30 08:46:54;;;;;;;;;;;;;;;;;;5073986;28;974;-58
2023/12/30 08:49:20;;;;;;;;;;;;;;;;;;5074244;28;915;-57
2023/12/30 08:51:46;;;;;;;;;;;;;;;;;;5073919;28;836;-58
2023/12/30 08:54:11;;;;;;;;;;;;;;;;;;5075339;28;914;-58
2023/12/30 08:56:37;;;;;;;;;;;;;;;;;;5076876;28;959;-58
2023/12/30 08:59:02;;;;;;;;;;;;;;;;;;5077651;28;1901;-57
2023/12/30 09:01:27;;;;;;;;;;;;;;;;;;5077775;28;950;-57
2023/12/30 09:03:54;;;;;;;;;;;;;;;;;;5077381;28;975;-58
2023/12/30 09:06:20;;;;;;;;;;;;;;;;;;5080681;28;1203;-57
2023/12/30 09:08:45;;;;;;;;;;;;;;;;;;5088824;28;1160;-56
2023/12/30 09:11:19;;;;;;;;;;;;;;;;;;5083058;28;1117;-58
2023/12/30 09:13:45;;;;;;;;;;;;;;;;;;5073859;28;1175;-59
2023/12/30 09:16:10;;;;;;;;;;;;;;;;;;5073435;28;1206;-57
2023/12/30 09:18:36;;;;;;;;;;;;;;;;;;5073906;28;1971;-57
2023/12/30 09:21:01;;;;;;;;;;;;;;;;;;5091698;28;1083;-59
2023/12/30 09:23:26;;;;;;;;;;;;;;;;;;5086457;28;1115;-56
2023/12/30 09:25:51;;;;;;;;;;;;;;;;;;5076140;28;1171;-57
2023/12/30 09:28:17;;;;;;;;;;;;;;;;;;5077065;28;920;-58
2023/12/30 09:30:42;;;;;;;;;;;;;;;;;;5077586;28;832;-57
2023/12/30 09:33:07;;;;;;;;;;;;;;;;;;5077416;28;889;-58
2023/12/30 09:35:33;;;;;;;;;;;;;;;;;;5076819;28;882;-57
2023/12/30 09:37:58;;;;;;;;;;;;;;;;;;5075471;28;1905;-58
2023/12/30 09:40:23;;;;;;;;;;;;;;;;;;5076744;28;903;-58
2023/12/30 09:42:50;;;;;;;;;;;;;;;;;;5076571;28;1266;-59
2023/12/30 09:45:16;;;;;;;;;;;;;;;;;;5076994;28;950;-58
2023/12/30 09:47:42;;;;;;;;;;;;;;;;;;5076495;28;923;-58
2023/12/30 09:50:08;;;;;;;;;;;;;;;;;;5076954;28;848;-58
2023/12/30 09:52:34;;;;;;;;;;;;;;;;;;5076683;28;958;-58
2023/12/30 09:54:59;;;;;;;;;;;;;;;;;;5075480;28;1029;-59
2023/12/30 09:57:24;;;;;;;;;;;;;;;;;;5076390;28;1902;-59
2023/12/30 09:59:50;;;;;;;;;;;;;;;;;;5076250;28;868;-58
2023/12/30 10:02:15;;;;;;;;;;;;;;;;;;5076555;28;883;-58
2023/12/30 10:04:41;;;;;;;;;;;;;;;;;;5076695;28;888;-58
2023/12/30 10:07:07;;;;;;;;;;;;;;;;;;5074899;28;1242;-58
2023/12/30 10:09:32;;;;;;;;;;;;;;;;;;5073061;28;1315;-58
2023/12/30 10:11:58;;;;;;;;;;;;;;;;;;5076562;28;1190;-58
2023/12/30 10:14:23;;;;;;;;;;;;;;;;;;5084299;28;1159;-59
2023/12/30 10:16:48;;;;;;;;;;;;;;;;;;5079465;28;1223;-58
2023/12/30 10:19:14;;;;;;;;;;;;;;;;;;5074202;28;1975;-58
2023/12/30 10:21:39;;;;;;;;;;;;;;;;;;5074157;28;908;-57
2023/12/30 10:24:05;;;;;;;;;;;;;;;;;;5075373;28;1007;-58
2023/12/30 10:26:36;;;;;;;;;;;;;;;;;;5076187;28;890;-57
2023/12/30 10:29:02;;;;;;;;;;;;;;;;;;5076138;28;904;-58
2023/12/30 10:31:27;;;;;;;;;;;;;;;;;;5075830;28;1057;-57
2023/12/30 10:33:53;;;;;;;;;;;;;;;;;;5076513;28;841;-58
2023/12/30 10:36:19;;;;;;;;;;;;;;;;;;5076010;28;923;-58
2023/12/30 10:38:45;;;;;;;;;;;;;;;;;;5076381;28;1947;-58
2023/12/30 10:41:10;;;;;;;;;;;;;;;;;;5075716;28;856;-57
2023/12/30 10:43:36;;;;;;;;;;;;;;;;;;5058205;28;1422;-58
2023/12/30 10:46:03;;;;;;;;;;;;;;;;;;5076277;28;895;-56
2023/12/30 10:48:32;;;;;;;;;;;;;;;;;;5074821;28;1111;-58
2023/12/30 10:50:59;;;;;;;;;;;;;;;;;;5075749;28;1003;-57
2023/12/30 10:53:38;;;;;;;;;;;;;;;;;;5075868;28;948;-58
2023/12/30 10:56:04;;;;;;;;;;;;;;;;;;5075951;28;789;-58
2023/12/30 10:58:35;;;;;;;;;;;;;;;;;;5075589;28;1910;-58
2023/12/30 11:01:02;;;;;;;;;;;;;;;;;;5075717;28;868;-57
2023/12/30 11:03:29;;;;;;;;;;;;;;;;;;5075555;28;998;-57
2023/12/30 11:05:54;;;;;;;;;;;;;;;;;;5075709;28;891;-58
2023/12/30 11:08:20;;;;;;;;;;;;;;;;;;5081464;28;1179;-58
2023/12/30 11:10:45;;;;;;;;;;;;;;;;;;5083595;28;1353;-57
2023/12/30 11:13:10;;;;;;;;;;;;;;;;;;5081571;28;1202;-58
2023/12/30 11:15:38;;;;;;;;;;;;;;;;;;5092629;28;1195;-58
2023/12/30 11:18:03;;;;;;;;;;;;;;;;;;5091371;28;1910;-59
2023/12/30 11:20:29;;;;;;;;;;;;;;;;;;5092414;28;1233;-57
2023/12/30 11:22:57;;;;;;;;;;;;;;;;;;5092890;28;1194;-57
2023/12/30 11:25:31;;;;;;;;;;;;;;;;;;5092658;28;1131;-57
2023/12/30 11:28:10;;;;;;;;;;;;;;;;;;5094554;28;1100;-57
2023/12/30 11:30:36;;;;;;;;;;;;;;;;;;5094609;28;1037;-56
2023/12/30 11:33:01;;;;;;;;;;;;;;;;;;5094633;28;844;-56
2023/12/30 11:35:27;;;;;;;;;;;;;;;;;;5094748;28;856;-58
2023/12/30 11:37:55;;;;;;;;;;;;;;;;;;5093574;28;1905;-58
2023/12/30 11:40:20;;;;;;;;;;;;;;;;;;5094601;28;1236;-57
2023/12/30 11:42:45;;;;;;;;;;;;;;;;;;5094317;28;871;-58
2023/12/30 11:45:11;;;;;;;;;;;;;;;;;;5094410;28;991;-58
2023/12/30 11:47:37;;;;;;;;;;;;;;;;;;5095031;28;863;-57
2023/12/30 11:50:03;;;;;;;;;;;;;;;;;;5092947;28;986;-58
2023/12/30 11:52:28;;;;;;;;;;;;;;;;;;5093314;28;1652;-58
2023/12/30 11:54:53;;;;;;;;;;;;;;;;;;5094290;28;907;-58
2023/12/30 11:57:19;;;;;;;;;;;;;;;;;;5094299;28;1965;-58
2023/12/30 11:59:44;;;;;;;;;;;;;;;;;;5092807;28;883;-58
2023/12/30 12:02:13;;;;;;;;;;;;;;;;;;5094459;28;907;-58
2023/12/30 12:04:38;;;;;;;;;;;;;;;;;;5094820;28;919;-58
2023/12/30 12:07:04;;;;;;;;;;;;;;;;;;5094177;28;962;-56
2023/12/30 12:09:29;;;;;;;;;;;;;;;;;;5079759;28;1234;-58
2023/12/30 12:11:54;;;;;;;;;;;;;;;;;;5072908;28;933;-57
2023/12/30 12:14:20;;;;;;;;;;;;;;;;;;5073291;28;840;-57
2023/12/30 12:16:45;;;;;;;;;;;;;;;;;;5073555;28;809;-57
2023/12/30 12:19:10;;;;;;;;;;;;;;;;;;5073130;28;1976;-57
2023/12/30 12:21:36;;;;;;;;;;;;;;;;;;5072407;28;848;-55
2023/12/30 12:24:02;;;;;;;;;;;;;;;;;;5073599;28;829;-57
2023/12/30 12:26:28;;;;;;;;;;;;;;;;;;5072431;28;907;-57
2023/12/30 12:28:54;;;;;;;;;;;;;;;;;;5073344;28;903;-56
2023/12/30 12:31:19;;;;;;;;;;;;;;;;;;5072860;28;912;-57
2023/12/30 12:33:44;;;;;;;;;;;;;;;;;;5074324;28;884;-57
2023/12/30 12:36:10;;;;;;;;;;;;;;;;;;5074038;28;1056;-56
2023/12/30 12:38:35;;;;;;;;;;;;;;;;;;5074084;28;1893;-56
2023/12/30 12:41:00;;;;;;;;;;;;;;;;;;5073359;28;856;-58
2023/12/30 12:43:26;;;;;;;;;;;;;;;;;;5074287;28;884;-56
2023/12/30 12:45:51;;;;;;;;;;;;;;;;;;5074239;28;911;-56
2023/12/30 12:48:16;;;;;;;;;;;;;;;;;;5073631;28;991;-57
2023/12/30 12:50:41;;;;;;;;;;;;;;;;;;5073674;28;909;-58
2023/12/30 12:53:07;;;;;;;;;;;;;;;;;;5074016;28;1104;-57
2023/12/30 12:55:32;;;;;;;;;;;;;;;;;;5073599;28;1211;-58
2023/12/30 12:57:58;;;;;;;;;;;;;;;;;;5073200;28;1897;-57
2023/12/30 13:00:25;;;;;;;;;;;;;;;;;;5073262;28;931;-57
2023/12/30 13:02:50;;;;;;;;;;;;;;;;;;5073462;28;985;-57
2023/12/30 13:05:19;;;;;;;;;;;;;;;;;;5073120;28;860;-58
2023/12/30 13:07:44;;;;;;;;;;;;;;;;;;5073486;28;848;-58
2023/12/30 13:12:46;;;;;;;;;;;;;;;;;;5072243;28;868;-56
2023/12/30 13:15:16;;;;;;;;;;;;;;;;;;5073446;28;883;-58
2023/12/30 13:17:44;;;;;;;;;;;;;;;;;;5073101;28;1898;-58
2023/12/30 13:20:10;;;;;;;;;;;;;;;;;;5073251;28;902;-57
2023/12/30 13:22:36;;;;;;;;;;;;;;;;;;5073480;28;896;-57
2023/12/30 13:25:01;;;;;;;;;;;;;;;;;;5073194;28;911;-60
2023/12/30 13:27:29;;;;;;;;;;;;;;;;;;5073121;28;829;-57
2023/12/30 13:29:54;;;;;;;;;;;;;;;;;;5073393;28;924;-57
2023/12/30 13:32:20;;;;;;;;;;;;;;;;;;5073050;28;861;-57
2023/12/30 13:34:49;;;;;;;;;;;;;;;;;;5073230;28;863;-57
2023/12/30 13:37:15;;;;;;;;;;;;;;;;;;5072996;28;872;-57
2023/12/30 13:39:41;;;;;;;;;;;;;;;;;;5073085;28;1902;-56
2023/12/30 13:42:10;;;;;;;;;;;;;;;;;;5075080;28;1179;-57
2023/12/30 13:44:42;;;;;;;;;;;;;;;;;;5076646;28;852;-58
2023/12/30 13:50:09;;;;;;;;;;;;;;;;;;5076568;28;689;-57
2023/12/30 13:52:36;;;;;;;;;;;;;;;;;;5077159;28;804;-57
2023/12/30 13:55:01;;;;;;;;;;;;;;;;;;5076578;28;898;-58
2023/12/30 13:57:30;;;;;;;;;;;;;;;;;;5075139;28;1918;-57
2023/12/30 13:59:55;;;;;;;;;;;;;;;;;;5076192;28;1067;-57
2023/12/30 14:02:22;;;;;;;;;;;;;;;;;;5076731;28;881;-57
2023/12/30 14:04:49;;;;;;;;;;;;;;;;;;5076689;28;887;-57
2023/12/30 14:07:21;;;;;;;;;;;;;;;;;;5076675;28;890;-57
2023/12/30 14:09:59;;;;;;;;;;;;;;;;;;5076460;28;848;-56
2023/12/30 14:12:24;;;;;;;;;;;;;;;;;;5075046;28;1182;-58
2023/12/30 14:14:54;;;;;;;;;;;;;;;;;;5076269;28;1156;-56
2023/12/30 14:17:20;;;;;;;;;;;;;;;;;;5094550;28;1206;-57
2023/12/30 14:19:48;;;;;;;;;;;;;;;;;;5096075;28;1964;-57
2023/12/30 14:22:14;;;;;;;;;;;;;;;;;;5095543;28;828;-57
2023/12/30 14:24:39;;;;;;;;;;;;;;;;;;5095753;28;812;-57
2023/12/30 14:27:04;;;;;;;;;;;;;;;;;;5094941;28;1665;-57
2023/12/30 14:29:29;;;;;;;;;;;;;;;;;;5096593;28;928;-57
2023/12/30 14:31:55;;;;;;;;;;;;;;;;;;5096460;28;893;-57
2023/12/30 14:34:20;;;;;;;;;;;;;;;;;;5096354;28;875;-58
2023/12/30 14:36:45;;;;;;;;;;;;;;;;;;5095823;28;947;-57
2023/12/30 14:39:14;;;;;;;;;;;;;;;;;;5096321;28;1902;-58
2023/12/30 14:41:40;;;;;;;;;;;;;;;;;;5095901;28;858;-58
2023/12/30 14:44:06;;;;;;;;;;;;;;;;;;5095860;28;832;-58
2023/12/30 14:46:31;;;;;;;;;;;;;;;;;;5096459;28;908;-57
2023/12/30 14:48:58;;;;;;;;;;;;;;;;;;5096058;28;853;-58
2023/12/30 14:51:23;;;;;;;;;;;;;;;;;;5095169;28;868;-58
2023/12/30 14:53:48;;;;;;;;;;;;;;;;;;5095953;28;1019;-57
2023/12/30 14:56:14;;;;;;;;;;;;;;;;;;5095675;28;825;-58
2023/12/30 14:58:39;;;;;;;;;;;;;;;;;;5095558;28;1953;-57
2023/12/30 15:01:05;;;;;;;;;;;;;;;;;;5096130;28;869;-57
2023/12/30 15:03:30;;;;;;;;;;;;;;;;;;5095423;28;856;-57
2023/12/30 15:05:56;;;;;;;;;;;;;;;;;;5095836;28;971;-57
2023/12/30 15:08:21;;;;;;;;;;;;;;;;;;5095200;28;950;-58
2023/12/30 15:10:46;;;;;;;;;;;;;;;;;;5095484;28;911;-57
2023/12/30 15:13:12;;;;;;;;;;;;;;;;;;5089742;28;1155;-57
2023/12/30 15:15:38;;;;;;;;;;;;;;;;;;5076547;28;1139;-57
2023/12/30 15:18:03;;;;;;;;;;;;;;;;;;5075823;28;1954;-57
2023/12/30 15:20:29;;;;;;;;;;;;;;;;;;5085233;28;1206;-57
2023/12/30 15:22:56;;;;;;;;;;;;;;;;;;5075036;28;1140;-57
2023/12/30 15:25:22;;;;;;;;;;;;;;;;;;5081134;28;1162;-58
2023/12/30 15:27:51;;;;;;;;;;;;;;;;;;5072452;28;1155;-58
2023/12/30 15:30:16;;;;;;;;;;;;;;;;;;5073460;28;825;-58
2023/12/30 15:32:42;;;;;;;;;;;;;;;;;;5074654;28;935;-58
2023/12/30 15:35:08;;;;;;;;;;;;;;;;;;5074886;28;816;-58
2023/12/30 15:37:34;;;;;;;;;;;;;;;;;;5074605;28;1898;-57
2023/12/30 15:39:59;;;;;;;;;;;;;;;;;;5074791;28;987;-56
2023/12/30 15:42:25;;;;;;;;;;;;;;;;;;5074487;28;1057;-58
2023/12/30 15:44:50;;;;;;;;;;;;;;;;;;5074649;28;907;-58
2023/12/30 15:47:16;;;;;;;;;;;;;;;;;;5074354;28;924;-58
2023/12/30 15:49:41;;;;;;;;;;;;;;;;;;5073567;28;1130;-57
2023/12/30 15:52:09;;;;;;;;;;;;;;;;;;5073929;28;881;-58
2023/12/30 15:54:34;;;;;;;;;;;;;;;;;;5073707;28;913;-58
2023/12/30 15:56:59;;;;;;;;;;;;;;;;;;5074261;28;900;-57
2023/12/30 15:59:26;;;;;;;;;;;;;;;;;;5074267;28;1871;-56
2023/12/30 16:01:51;;;;;;;;;;;;;;;;;;5074283;28;838;-57
2023/12/30 16:04:16;;;;;;;;;;;;;;;;;;5074108;28;928;-57
2023/12/30 16:06:42;;;;;;;;;;;;;;;;;;5074263;28;966;-57
2023/12/30 16:09:07;;;;;;;;;;;;;;;;;;5073791;28;1014;-57
2023/12/30 16:11:33;;;;;;;;;;;;;;;;;;5074005;28;935;-57
2023/12/30 16:13:58;;;;;;;;;;;;;;;;;;5072003;28;1269;-57
2023/12/30 16:16:23;;;;;;;;;;;;;;;;;;5069650;28;1176;-57
2023/12/30 16:18:49;;;;;;;;;;;;;;;;;;5090565;28;1989;-57
2023/12/30 16:21:15;;;;;;;;;;;;;;;;;;5073107;28;1369;-56
2023/12/30 16:23:41;;;;;;;;;;;;;;;;;;5073334;28;1136;-57
2023/12/30 16:26:07;;;;;;;;;;;;;;;;;;5068662;28;1210;-57
2023/12/30 16:28:33;;;;;;;;;;;;;;;;;;5071586;28;1092;-57
2023/12/30 16:30:59;;;;;;;;;;;;;;;;;;5073126;28;828;-56
2023/12/30 16:33:24;;;;;;;;;;;;;;;;;;5073567;28;962;-57
2023/12/30 16:35:49;;;;;;;;;;;;;;;;;;5073274;28;778;-57
2023/12/30 16:38:15;;;;;;;;;;;;;;;;;;5073203;28;1925;-56
2023/12/30 16:40:41;;;;;;;;;;;;;;;;;;5073686;28;869;-56
2023/12/30 16:43:06;;;;;;;;;;;;;;;;;;5073891;28;999;-56
2023/12/30 16:45:31;;;;;;;;;;;;;;;;;;5073277;28;951;-57
2023/12/30 16:47:56;;;;;;;;;;;;;;;;;;5073153;28;1007;-58
2023/12/30 16:50:22;;;;;;;;;;;;;;;;;;5073359;28;833;-57
2023/12/30 16:52:49;;;;;;;;;;;;;;;;;;5073392;28;829;-56
2023/12/30 16:55:14;;;;;;;;;;;;;;;;;;5072826;28;1022;-57
2023/12/30 16:57:39;;;;;;;;;;;;;;;;;;5073285;28;1898;-56
2023/12/30 17:00:09;;;;;;;;;;;;;;;;;;5072969;28;1136;-58
2023/12/30 17:02:35;;;;;;;;;;;;;;;;;;5073389;28;1147;-57
2023/12/30 17:05:00;;;;;;;;;;;;;;;;;;5073297;28;951;-57
2023/12/30 17:07:25;;;;;;;;;;;;;;;;;;5073049;28;994;-56